עמוד ראשי
METAR-TAF:

METAR-TAF

שדות תעופה :

פנרהין, איי קוק

קו רוחב: 9-00-52S, קו אורך: 158-01-57W, גובה: 2מטר

תצפית מזג אוויר נוכחית

הדו"ח נערך לפני 1 שעות ו 6דקות, בשעה 09:00 UTC
רוח 13קשר מכיוון מזרח
טמפרטורת 28 צלסיוס
לחות 84%
לחץ 1011 hPa

METAR: NCPY 150900Z AUTO 09013KT //// ////// 28/25 Q1011

זמן: 00:06 (10:06 UTC)


TAF: חסר

תצפיות ותחזיות מזג אוויר לגבי יותר מ- 4,000 שדות תעופה ברחבי העולם. דוחות METAR ו- TAF.

התחנות הזמינות מסומנות בנקודות צהובות ואדומות על גבי המפה.

העבר את העכבר לנקודה הצבעונית על מנת לראות את שם התחנה.

לאחר מכן, לחץ כדי לראות את תוכן ואת תחזיות מזג האוויר.

כדי לשנות את המפה: לחץ על הכפתורים הירוקים עם הפלוס השחור כדי להתקרב; על הכפתור הירוק עם המקף כדי להתרחק; או בחיצים הירוקים למפות סמוכות.


METAR-TAF: